createdAt,value
2019-02-05T00:01:41.028Z,100686.03
2019-02-05T00:04:10.661Z,100683.20
2019-02-05T00:06:40.370Z,100684.75
2019-02-05T00:09:11.338Z,100689.42
2019-02-05T00:11:41.022Z,100688.55
2019-02-05T00:14:10.629Z,100689.83
2019-02-05T00:16:40.636Z,100693.16
2019-02-05T00:19:10.172Z,100693.77
2019-02-05T00:21:39.776Z,100697.73
2019-02-05T00:24:09.359Z,100703.45
2019-02-05T00:26:39.012Z,100704.77
2019-02-05T00:29:08.544Z,100709.08
2019-02-05T00:31:38.480Z,100707.67
2019-02-05T00:34:08.098Z,100709.97
2019-02-05T00:36:37.709Z,100716.94
2019-02-05T00:39:09.082Z,100708.29
2019-02-05T00:41:38.788Z,100708.43
2019-02-05T00:44:08.465Z,100709.77
2019-02-05T00:46:38.108Z,100713.30
2019-02-05T00:49:07.798Z,100710.66
2019-02-05T00:51:37.344Z,100715.03
2019-02-05T00:54:07.047Z,100708.50
2019-02-05T00:56:36.819Z,100703.06
2019-02-05T00:59:06.801Z,100701.66
2019-02-05T01:01:36.483Z,100708.36
2019-02-05T01:04:06.293Z,100703.28
2019-02-05T01:06:35.970Z,100705.68
2019-02-05T01:09:07.720Z,100698.59
2019-02-05T01:11:37.446Z,100700.28
2019-02-05T01:14:07.351Z,100691.11
2019-02-05T01:16:37.557Z,100693.79
2019-02-05T01:19:07.187Z,100685.11
2019-02-05T01:21:36.885Z,100693.01
2019-02-05T01:24:06.505Z,100692.77
2019-02-05T01:26:36.049Z,100683.91
2019-02-05T01:29:05.643Z,100692.13
2019-02-05T01:31:35.319Z,100694.73
2019-02-05T01:34:05.064Z,100691.63
2019-02-05T01:36:34.805Z,100697.66
2019-02-05T01:39:05.760Z,100714.78
2019-02-05T01:41:35.801Z,100705.00
2019-02-05T01:44:05.374Z,100703.09
2019-02-05T01:46:34.895Z,100702.04
2019-02-05T01:49:04.550Z,100698.30
2019-02-05T01:51:34.227Z,100698.75
2019-02-05T01:54:03.897Z,100697.52
2019-02-05T01:56:40.425Z,100692.16
2019-02-05T01:59:05.062Z,100694.13
2019-02-05T02:01:34.707Z,100702.95
2019-02-05T02:04:04.352Z,100702.79
2019-02-05T02:06:33.979Z,100692.42
2019-02-05T02:09:04.687Z,100694.48
2019-02-05T02:11:34.219Z,100700.12
2019-02-05T02:14:03.953Z,100696.77
2019-02-05T02:16:33.495Z,100700.36
2019-02-05T02:19:03.241Z,100704.23
2019-02-05T02:21:32.916Z,100707.25
2019-02-05T02:24:02.610Z,100698.37
2019-02-05T02:26:32.147Z,100695.61
2019-02-05T02:29:01.688Z,100690.62
2019-02-05T02:31:31.336Z,100686.19
2019-02-05T02:34:00.983Z,100681.19
2019-02-05T02:36:30.673Z,100679.23
2019-02-05T02:39:00.669Z,100683.92
2019-02-05T02:41:30.480Z,100674.50
2019-02-05T02:44:00.128Z,100674.91
2019-02-05T02:46:29.802Z,100673.56
2019-02-05T02:48:59.607Z,100672.58
2019-02-05T02:51:29.263Z,100677.31
2019-02-05T02:53:59.261Z,100678.92
2019-02-05T02:56:28.807Z,100677.39
2019-02-05T02:58:58.413Z,100676.67
2019-02-05T03:01:28.107Z,100673.86
2019-02-05T03:03:57.692Z,100671.31
2019-02-05T03:06:27.232Z,100674.62
2019-02-05T03:08:57.318Z,100676.37
2019-02-05T03:11:26.995Z,100678.78
2019-02-05T03:13:56.657Z,100676.94
2019-02-05T03:16:26.257Z,100682.37
2019-02-05T03:18:55.923Z,100676.94
2019-02-05T03:21:25.561Z,100684.34
2019-02-05T03:23:55.250Z,100692.99
2019-02-05T03:26:25.087Z,100690.67
2019-02-05T03:28:54.681Z,100699.33
2019-02-05T03:31:24.370Z,100689.91
2019-02-05T03:33:53.920Z,100700.25
2019-02-05T03:36:23.597Z,100702.30
2019-02-05T03:38:53.140Z,100700.73
2019-02-05T03:41:22.770Z,100703.97
2019-02-05T03:43:52.529Z,100712.44
2019-02-05T03:46:22.085Z,100703.44
2019-02-05T03:48:51.770Z,100706.66
2019-02-05T03:52:17.250Z,100705.97
2019-02-05T03:55:35.736Z,100701.25
2019-02-05T03:58:29.806Z,100709.41
2019-02-05T04:01:32.035Z,100701.59
2019-02-05T04:04:38.690Z,100702.92
2019-02-05T04:07:48.063Z,100703.34
2019-02-05T04:11:16.999Z,100698.34
2019-02-05T04:14:27.947Z,100702.00
2019-02-05T04:17:14.787Z,100702.36
2019-02-05T04:20:22.262Z,100697.93
2019-02-05T04:23:45.312Z,100701.09
2019-02-05T04:26:49.441Z,100697.63
2019-02-05T04:29:55.555Z,100693.41
2019-02-05T04:32:56.467Z,100700.80
2019-02-05T04:36:08.983Z,100704.91
2019-02-05T04:39:16.005Z,100699.06
2019-02-05T04:42:22.537Z,100707.23
2019-02-05T04:45:04.057Z,100706.39
2019-02-05T04:48:03.860Z,100706.88
2019-02-05T04:51:17.402Z,100703.84
2019-02-05T04:54:04.052Z,100707.36
2019-02-05T04:57:27.178Z,100707.98
2019-02-05T05:00:32.861Z,100706.51
2019-02-05T05:03:33.953Z,100710.84
2019-02-05T05:06:50.556Z,100710.19
2019-02-05T05:09:55.211Z,100718.28
2019-02-05T05:12:25.415Z,100718.69
2019-02-05T05:14:55.060Z,100714.34
2019-02-05T05:17:24.647Z,100709.61
2019-02-05T05:19:54.408Z,100706.94
2019-02-05T05:22:23.960Z,100704.66
2019-02-05T05:24:53.629Z,100706.78
2019-02-05T05:27:25.340Z,100715.14
2019-02-05T05:29:54.983Z,100722.19
2019-02-05T05:32:24.588Z,100732.11
2019-02-05T05:34:54.240Z,100737.10
2019-02-05T05:37:24.048Z,100751.42
2019-02-05T05:39:53.613Z,100754.95
2019-02-05T05:42:23.683Z,100745.91
2019-02-05T05:44:53.511Z,100744.66
2019-02-05T05:47:23.165Z,100754.97
2019-02-05T05:49:52.696Z,100754.64
2019-02-05T05:52:22.408Z,100763.03
2019-02-05T05:54:51.951Z,100769.23
2019-02-05T05:57:21.490Z,100775.59
2019-02-05T05:59:51.236Z,100780.06
2019-02-05T06:02:21.535Z,100779.71
2019-02-05T06:04:51.082Z,100783.88
2019-02-05T06:07:20.688Z,100784.02
2019-02-05T06:09:50.317Z,100782.45
2019-02-05T06:12:19.960Z,100780.64
2019-02-05T06:14:49.927Z,100781.27
2019-02-05T06:17:19.621Z,100785.73
2019-02-05T06:19:49.171Z,100783.19
2019-02-05T06:22:18.807Z,100783.32
2019-02-05T06:24:49.516Z,100773.06
2019-02-05T06:27:19.053Z,100773.13
2019-02-05T06:29:48.936Z,100782.92
2019-02-05T06:32:18.698Z,100781.23
2019-02-05T06:34:48.372Z,100777.25
2019-02-05T06:37:18.281Z,100787.14
2019-02-05T06:39:47.838Z,100793.97
2019-02-05T06:42:17.445Z,100792.63
2019-02-05T06:44:47.299Z,100791.65
2019-02-05T06:47:17.024Z,100798.83
2019-02-05T06:49:46.736Z,100799.03
2019-02-05T06:52:16.429Z,100789.14
2019-02-05T06:54:45.995Z,100796.00
2019-02-05T06:57:15.647Z,100788.97
2019-02-05T06:59:45.267Z,100784.39
2019-02-05T07:02:14.864Z,100782.49
2019-02-05T07:04:44.618Z,100787.72
2019-02-05T07:07:14.184Z,100786.34
2019-02-05T07:09:43.812Z,100789.08
2019-02-05T07:12:13.599Z,100795.19
2019-02-05T07:14:43.244Z,100783.09
2019-02-05T07:17:13.134Z,100786.63
2019-02-05T07:19:42.684Z,100787.97
2019-02-05T07:22:12.240Z,100796.00
2019-02-05T07:24:41.877Z,100793.06
2019-02-05T07:27:11.564Z,100794.22
2019-02-05T07:29:41.294Z,100798.10
2019-02-05T07:32:11.112Z,100791.14
2019-02-05T07:34:40.792Z,100796.06
2019-02-05T07:37:10.339Z,100795.31
2019-02-05T07:39:40.011Z,100795.58
2019-02-05T07:42:09.647Z,100788.34
2019-02-05T07:44:40.082Z,100784.77
2019-02-05T07:47:09.713Z,100786.81
2019-02-05T07:49:39.621Z,100783.41
2019-02-05T07:52:09.181Z,100781.22
2019-02-05T07:54:38.984Z,100779.02
2019-02-05T07:57:08.541Z,100771.92
2019-02-05T07:59:38.103Z,100774.51
2019-02-05T08:02:07.762Z,100772.67
2019-02-05T08:04:37.363Z,100778.19
2019-02-05T08:07:07.663Z,100779.20
2019-02-05T08:09:37.343Z,100780.91
2019-02-05T08:12:06.983Z,100778.92
2019-02-05T08:14:36.762Z,100767.66
2019-02-05T08:17:06.285Z,100768.27
2019-02-05T08:19:35.835Z,100772.81
2019-02-05T08:22:05.590Z,100765.62
2019-02-05T08:24:35.541Z,100759.08
2019-02-05T08:27:05.103Z,100759.88
2019-02-05T08:29:34.638Z,100763.48
2019-02-05T08:32:04.437Z,100757.80
2019-02-05T08:34:34.032Z,100756.64
2019-02-05T08:37:03.569Z,100752.82
2019-02-05T08:39:33.456Z,100762.85
2019-02-05T08:42:03.177Z,100761.16
2019-02-05T08:44:32.877Z,100765.63
2019-02-05T08:47:02.412Z,100770.43
2019-02-05T08:49:31.942Z,100770.43
2019-02-05T08:52:01.738Z,100767.39
2019-02-05T08:54:31.292Z,100771.58
2019-02-05T08:57:01.113Z,100771.25
2019-02-05T08:59:30.760Z,100775.83
2019-02-05T09:02:00.443Z,100783.59
2019-02-05T09:04:30.147Z,100775.05
2019-02-05T09:06:59.729Z,100775.60
2019-02-05T09:09:29.400Z,100774.93
2019-02-05T09:11:59.103Z,100774.00
2019-02-05T09:14:28.884Z,100772.75
2019-02-05T09:16:58.423Z,100774.32
2019-02-05T09:19:28.123Z,100772.61
2019-02-05T09:21:57.707Z,100770.06
2019-02-05T09:24:27.272Z,100775.44
2019-02-05T09:26:56.923Z,100772.80
2019-02-05T09:29:33.347Z,100768.38
2019-02-05T09:31:58.252Z,100772.59
2019-02-05T09:34:27.835Z,100766.03
2019-02-05T09:36:57.451Z,100762.75
2019-02-05T09:39:27.060Z,100757.09
2019-02-05T09:41:56.716Z,100759.97
2019-02-05T09:44:26.550Z,100762.54
2019-02-05T09:46:56.099Z,100757.46
2019-02-05T09:49:25.894Z,100755.73
2019-02-05T09:51:55.465Z,100758.06
2019-02-05T09:54:25.087Z,100755.69
2019-02-05T09:56:54.689Z,100753.16
2019-02-05T09:59:24.287Z,100756.58
2019-02-05T10:01:53.915Z,100743.09
2019-02-05T10:04:23.628Z,100753.26
2019-02-05T10:06:53.280Z,100753.40
2019-02-05T10:09:22.824Z,100753.33
2019-02-05T10:11:52.417Z,100749.88
2019-02-05T10:14:22.262Z,100745.45
2019-02-05T10:16:52.283Z,100739.91
2019-02-05T10:19:21.968Z,100742.17
2019-02-05T10:21:51.680Z,100745.41
2019-02-05T10:24:21.320Z,100743.45
2019-02-05T10:26:50.893Z,100747.54
2019-02-05T10:29:20.558Z,100736.20
2019-02-05T10:31:50.230Z,100742.20
2019-02-05T10:34:19.926Z,100751.48
2019-02-05T10:36:49.554Z,100749.75
2019-02-05T10:39:19.118Z,100751.03
2019-02-05T10:41:48.876Z,100744.67
2019-02-05T10:44:18.414Z,100743.04
2019-02-05T10:46:48.162Z,100737.25
2019-02-05T10:49:17.970Z,100738.41
2019-02-05T10:51:47.610Z,100739.84
2019-02-05T10:54:17.296Z,100741.08
2019-02-05T10:56:47.001Z,100737.22
2019-02-05T10:59:16.554Z,100730.83
2019-02-05T11:01:46.089Z,100733.77
2019-02-05T11:04:16.114Z,100728.32
2019-02-05T11:06:45.731Z,100721.58
2019-02-05T11:09:15.310Z,100719.47
2019-02-05T11:11:44.992Z,100714.79
2019-02-05T11:14:14.766Z,100714.81
2019-02-05T11:16:44.297Z,100710.35
2019-02-05T11:19:13.980Z,100706.33
2019-02-05T11:21:43.650Z,100702.00
2019-02-05T11:24:13.236Z,100708.73
2019-02-05T11:26:42.795Z,100694.36
2019-02-05T11:29:12.560Z,100695.21
2019-02-05T11:31:42.081Z,100694.09
2019-02-05T11:34:11.734Z,100691.48
2019-02-05T11:36:41.442Z,100692.67
2019-02-05T11:39:20.053Z,100692.45
2019-02-05T11:41:49.704Z,100691.45
2019-02-05T11:44:19.375Z,100687.83
2019-02-05T11:46:48.980Z,100684.53
2019-02-05T11:49:18.629Z,100685.03
2019-02-05T11:51:48.299Z,100685.03
2019-02-05T11:54:17.941Z,100686.08
2019-02-05T11:56:47.715Z,100683.70
2019-02-05T11:59:17.231Z,100685.31
2019-02-05T12:01:46.839Z,100688.83
2019-02-05T12:04:16.537Z,100688.58
2019-02-05T12:06:46.489Z,100679.92
2019-02-05T12:09:22.332Z,100674.59
2019-02-05T12:11:52.029Z,100677.63
2019-02-05T12:14:21.836Z,100674.44
2019-02-05T12:16:51.402Z,100678.28
2019-02-05T12:19:21.047Z,100671.90
2019-02-05T12:21:50.999Z,100676.83
2019-02-05T12:24:20.574Z,100673.50
2019-02-05T12:26:50.177Z,100668.81
2019-02-05T12:29:19.898Z,100667.52
2019-02-05T12:31:49.485Z,100662.55
2019-02-05T12:34:19.140Z,100662.12
2019-02-05T12:36:48.689Z,100656.81
2019-02-05T12:39:21.118Z,100659.00
2019-02-05T12:41:50.652Z,100659.70
2019-02-05T12:44:20.182Z,100661.05
2019-02-05T12:46:49.804Z,100659.27
2019-02-05T12:49:19.403Z,100659.50
2019-02-05T12:51:48.917Z,100663.42
2019-02-05T12:54:18.564Z,100658.59
2019-02-05T12:56:48.085Z,100656.81
2019-02-05T12:59:17.671Z,100653.44
2019-02-05T13:01:47.284Z,100647.16
2019-02-05T13:04:16.890Z,100646.94
2019-02-05T13:06:46.457Z,100649.84
2019-02-05T13:09:16.332Z,100652.53
2019-02-05T13:11:45.881Z,100649.84
2019-02-05T13:14:15.515Z,100649.55
2019-02-05T13:16:45.841Z,100648.70
2019-02-05T13:19:15.456Z,100648.30
2019-02-05T13:21:45.022Z,100648.01
2019-02-05T13:24:16.692Z,100650.49
2019-02-05T13:26:45.972Z,100647.36
2019-02-05T13:29:15.991Z,100646.39
2019-02-05T13:31:45.510Z,100647.02
2019-02-05T13:34:15.218Z,100618.62
2019-02-05T13:36:45.453Z,100656.91
2019-02-05T13:39:15.078Z,100661.14
2019-02-05T13:41:44.715Z,100654.10
2019-02-05T13:44:14.244Z,100653.80
2019-02-05T13:46:43.793Z,100656.19
2019-02-05T13:49:13.356Z,100653.18
2019-02-05T13:51:42.989Z,100646.24
2019-02-05T13:54:12.694Z,100648.28
2019-02-05T13:56:42.244Z,100645.82
2019-02-05T13:59:11.795Z,100653.67
2019-02-05T14:01:44.406Z,100648.95
2019-02-05T14:04:12.760Z,100637.56
2019-02-05T14:06:42.407Z,100632.12
2019-02-05T14:09:13.727Z,100640.46
2019-02-05T14:11:43.295Z,100646.72
2019-02-05T14:14:12.926Z,100646.13
2019-02-05T14:16:42.552Z,100637.98
2019-02-05T14:19:12.084Z,100633.61
2019-02-05T14:21:42.160Z,100634.41
2019-02-05T14:24:11.718Z,100634.59
2019-02-05T14:26:41.369Z,100639.59
2019-02-05T14:29:10.923Z,100641.36
2019-02-05T14:31:40.691Z,100638.56
2019-02-05T14:34:10.567Z,100646.60
2019-02-05T14:36:40.152Z,100652.12
2019-02-05T14:39:10.536Z,100651.77
2019-02-05T14:41:40.108Z,100654.66
2019-02-05T14:44:09.686Z,100645.62
2019-02-05T14:46:39.268Z,100649.30
2019-02-05T14:49:09.186Z,100649.30
2019-02-05T14:51:38.887Z,100650.28
2019-02-05T14:54:08.508Z,100647.73
2019-02-05T14:56:38.111Z,100647.83
2019-02-05T14:59:07.829Z,100647.08
2019-02-05T15:01:43.165Z,100644.59
2019-02-05T15:04:08.883Z,100644.95
2019-02-05T15:06:38.474Z,100637.05
2019-02-05T15:09:08.501Z,100638.05
2019-02-05T15:11:38.214Z,100630.72
2019-02-05T15:14:07.731Z,100630.72
2019-02-05T15:16:37.324Z,100629.38
2019-02-05T15:19:06.925Z,100636.39
2019-02-05T15:21:38.693Z,100637.20
2019-02-05T15:24:08.218Z,100638.27
2019-02-05T15:26:38.043Z,100646.38
2019-02-05T15:29:07.723Z,100643.22
2019-02-05T15:31:37.879Z,100647.23
2019-02-05T15:34:22.986Z,100643.27
2019-02-05T15:36:52.684Z,100648.76
2019-02-05T15:39:22.220Z,100651.16
2019-02-05T15:41:51.777Z,100652.59
2019-02-05T15:44:21.341Z,100660.48
2019-02-05T15:46:50.897Z,100657.64
2019-02-05T15:49:21.692Z,100656.74
2019-02-05T15:51:51.325Z,100659.42
2019-02-05T15:54:20.854Z,100667.09
2019-02-05T15:56:50.809Z,100661.60
2019-02-05T15:59:20.511Z,100660.63
2019-02-05T16:01:50.044Z,100664.83
2019-02-05T16:04:19.667Z,100674.01
2019-02-05T16:06:49.344Z,100674.41
2019-02-05T16:09:18.977Z,100672.44
2019-02-05T16:11:48.902Z,100678.42
2019-02-05T16:14:18.573Z,100680.33
2019-02-05T16:16:48.136Z,100688.00
2019-02-05T16:19:17.791Z,100688.36
2019-02-05T16:21:47.330Z,100689.60
2019-02-05T16:24:16.895Z,100688.56
2019-02-05T16:26:46.784Z,100686.42
2019-02-05T16:29:16.465Z,100689.45
2019-02-05T16:31:46.046Z,100693.11
2019-02-05T16:34:15.851Z,100689.45
2019-02-05T16:36:48.483Z,100681.41
2019-02-05T16:39:16.756Z,100685.91
2019-02-05T16:41:46.926Z,100681.18
2019-02-05T16:44:16.506Z,100677.73
2019-02-05T16:46:46.131Z,100675.26
2019-02-05T16:49:15.769Z,100674.34
2019-02-05T16:51:45.395Z,100679.42
2019-02-05T16:54:14.934Z,100673.66
2019-02-05T16:56:44.898Z,100677.14
2019-02-05T16:59:14.460Z,100679.42
2019-02-05T17:01:44.108Z,100682.10
2019-02-05T17:04:13.635Z,100684.36
2019-02-05T17:06:43.235Z,100679.27
2019-02-05T17:09:18.067Z,100673.20
2019-02-05T17:11:47.703Z,100656.28
2019-02-05T17:14:17.289Z,100644.97
2019-02-05T17:16:46.938Z,100648.81
2019-02-05T17:19:16.484Z,100653.19
2019-02-05T17:21:46.099Z,100662.61
2019-02-05T17:24:16.020Z,100669.88
2019-02-05T17:26:45.582Z,100678.75
2019-02-05T17:29:15.291Z,100668.41
2019-02-05T17:31:44.846Z,100650.19
2019-02-05T17:34:14.528Z,100649.59
2019-02-05T17:36:44.083Z,100665.91
2019-02-05T17:39:14.387Z,100671.97
2019-02-05T17:41:43.978Z,100671.91
2019-02-05T17:44:13.544Z,100664.23
2019-02-05T17:46:43.099Z,100661.77
2019-02-05T17:49:12.628Z,100648.10
2019-02-05T17:51:42.300Z,100646.05
2019-02-05T17:54:12.029Z,100651.75
2019-02-05T17:56:41.598Z,100652.11
2019-02-05T17:59:11.152Z,100661.08
2019-02-05T18:01:40.714Z,100657.33
2019-02-05T18:04:10.419Z,100647.48
2019-02-05T18:06:39.972Z,100638.19
2019-02-05T18:09:09.910Z,100639.81
2019-02-05T18:11:39.634Z,100641.16
2019-02-05T18:14:09.178Z,100647.68
2019-02-05T18:16:38.722Z,100649.70
2019-02-05T18:19:08.275Z,100644.45
2019-02-05T18:21:37.872Z,100633.98
2019-02-05T18:24:07.467Z,100637.70
2019-02-05T18:26:37.110Z,100627.43
2019-02-05T18:29:06.807Z,100622.61
2019-02-05T18:31:36.407Z,100623.61
2019-02-05T18:34:06.069Z,100618.76
2019-02-05T18:36:35.621Z,100617.23
2019-02-05T18:39:08.401Z,100613.16
2019-02-05T18:41:38.147Z,100619.48
2019-02-05T18:44:07.724Z,100625.77
2019-02-05T18:46:37.269Z,100628.70
2019-02-05T18:49:07.380Z,100628.48
2019-02-05T18:51:38.322Z,100631.28
2019-02-05T18:54:07.896Z,100638.02
2019-02-05T18:56:37.475Z,100641.50
2019-02-05T18:59:07.154Z,100638.21
2019-02-05T19:01:36.727Z,100635.73
2019-02-05T19:04:06.439Z,100640.48
2019-02-05T19:06:36.347Z,100655.08
2019-02-05T19:09:12.053Z,100655.13
2019-02-05T19:11:41.702Z,100659.55
2019-02-05T19:14:11.410Z,100661.56
2019-02-05T19:16:41.089Z,100650.70
2019-02-05T19:19:15.012Z,100648.57
2019-02-05T19:21:42.215Z,100657.56
2019-02-05T19:24:31.110Z,100665.91
2019-02-05T19:27:00.765Z,100667.02
2019-02-05T19:29:30.414Z,100654.58
2019-02-05T19:32:00.568Z,100649.29
2019-02-05T19:34:30.132Z,100639.58
2019-02-05T19:36:59.843Z,100647.70
2019-02-05T19:39:29.506Z,100643.69
2019-02-05T19:41:59.229Z,100640.40
2019-02-05T19:44:29.065Z,100638.77
2019-02-05T19:47:04.581Z,100637.63
2019-02-05T19:49:38.805Z,100628.82
2019-02-05T19:52:08.613Z,100624.34
2019-02-05T19:54:38.247Z,100631.75
2019-02-05T19:57:10.688Z,100626.05
2019-02-05T19:59:40.622Z,100636.55
2019-02-05T20:02:10.341Z,100651.38
2019-02-05T20:04:39.959Z,100654.46
2019-02-05T20:07:09.742Z,100649.38
2019-02-05T20:09:39.335Z,100644.88
2019-02-05T20:12:09.075Z,100645.80
2019-02-05T20:14:38.665Z,100650.78
2019-02-05T20:17:09.012Z,100658.61
2019-02-05T20:19:38.565Z,100654.24
2019-02-05T20:22:08.223Z,100646.72
2019-02-05T20:24:37.904Z,100648.42
2019-02-05T20:27:07.555Z,100652.04
2019-02-05T20:29:37.100Z,100648.47
2019-02-05T20:32:07.146Z,100649.50
2019-02-05T20:34:36.694Z,100650.45
2019-02-05T20:37:06.284Z,100647.78
2019-02-05T20:39:35.998Z,100642.77
2019-02-05T20:42:05.616Z,100647.00
2019-02-05T20:44:35.190Z,100644.20
2019-02-05T20:47:05.317Z,100653.20
2019-02-05T20:49:34.917Z,100652.95
2019-02-05T20:52:04.510Z,100653.66
2019-02-05T20:54:34.160Z,100642.20
2019-02-05T20:57:03.852Z,100647.47
2019-02-05T20:59:33.533Z,100638.02
2019-02-05T21:02:03.181Z,100639.59
2019-02-05T21:04:35.399Z,100625.74
2019-02-05T21:07:04.352Z,100628.48
2019-02-05T21:09:33.929Z,100621.16
2019-02-05T21:12:03.518Z,100620.25
2019-02-05T21:14:33.161Z,100621.69
2019-02-05T21:17:02.719Z,100619.64
2019-02-05T21:19:32.742Z,100610.28
2019-02-05T21:22:02.280Z,100601.55
2019-02-05T21:24:32.013Z,100608.95
2019-02-05T21:27:01.690Z,100609.44
2019-02-05T21:29:31.235Z,100604.64
2019-02-05T21:32:00.823Z,100602.53
2019-02-05T21:34:30.739Z,100602.53
2019-02-05T21:37:00.332Z,100594.24
2019-02-05T21:39:30.052Z,100588.54
2019-02-05T21:41:59.764Z,100578.70
2019-02-05T21:44:29.409Z,100576.81
2019-02-05T21:46:59.088Z,100575.92
2019-02-05T21:49:29.080Z,100573.69
2019-02-05T21:51:58.695Z,100576.66
2019-02-05T21:54:28.385Z,100574.84
2019-02-05T21:56:58.134Z,100567.19
2019-02-05T21:59:27.719Z,100579.56
2019-02-05T22:01:57.349Z,100582.95
2019-02-05T22:04:27.883Z,100572.99
2019-02-05T22:06:58.153Z,100564.33
2019-02-05T22:09:27.895Z,100555.17
2019-02-05T22:11:57.483Z,100567.91
2019-02-05T22:14:27.122Z,100566.64
2019-02-05T22:16:57.240Z,100563.64
2019-02-05T22:19:27.057Z,100559.97
2019-02-05T22:21:56.633Z,100554.10
2019-02-05T22:24:26.168Z,100561.40
2019-02-05T22:26:55.848Z,100565.41
2019-02-05T22:29:25.539Z,100561.66
2019-02-05T22:31:55.266Z,100567.65
2019-02-05T22:34:25.101Z,100566.83
2019-02-05T22:36:54.817Z,100576.17
2019-02-05T22:39:24.370Z,100573.86
2019-02-05T22:41:53.919Z,100566.83
2019-02-05T22:44:23.518Z,100564.03
2019-02-05T22:46:53.428Z,100563.97
2019-02-05T22:49:23.167Z,100556.44
2019-02-05T22:51:53.158Z,100552.07
2019-02-05T22:54:22.780Z,100542.08
2019-02-05T22:56:52.473Z,100530.22
2019-02-05T22:59:22.243Z,100516.66
2019-02-05T23:01:57.308Z,100518.84
2019-02-05T23:04:50.363Z,100511.64
2019-02-05T23:07:19.366Z,100511.94
2019-02-05T23:10:16.347Z,100512.23
2019-02-05T23:12:52.802Z,100503.92
2019-02-05T23:15:24.279Z,100495.45
2019-02-05T23:17:54.082Z,100506.72
2019-02-05T23:20:24.196Z,100507.76
2019-02-05T23:22:56.874Z,100511.30
2019-02-05T23:25:25.256Z,100502.05
2019-02-05T23:27:54.807Z,100497.69
2019-02-05T23:30:28.486Z,100492.36
2019-02-05T23:32:58.379Z,100485.84
2019-02-05T23:35:28.399Z,100479.52
2019-02-05T23:37:57.956Z,100483.27
2019-02-05T23:40:27.622Z,100487.99
2019-02-05T23:42:57.251Z,100486.30
2019-02-05T23:45:26.946Z,100484.34
2019-02-05T23:47:56.476Z,100484.25
2019-02-05T23:50:26.325Z,100488.30
2019-02-05T23:52:55.959Z,100496.88
2019-02-05T23:55:25.555Z,100499.52
2019-02-05T23:57:55.146Z,100487.38
